Ana Sayfa
METAR-TAF:

METAR-TAF

Havaalanları :

Mexicali, Meksika

Enlem: 32-37-50N, Boylam: 115-14-30W, yükseklik: 22 m

Güncel hava durumu gözlemi

Rapor saat 05:40 UTC de 1 saat ve 1 dakika önce yapıldı.
Rüzgar kuzeydan 3 kt
Sıcaklık 27°C
Nem 58%
Basınç 1007 hPa
Görüş mesafesi: 16.1 km
Açık gökyüzü

METAR: MMML 180540Z 36003KT 10SM SKC 27/18 A2973 RMK SLP068 52023 910 ISOL CI

Saat: 01:41 (06:41 UTC)

Tahmin

Rapor saat 04:26 UTC de 2 saat ve 15 dakika önce yapıldı.
Ayın 18'si saat 06 UTC'den ayın 19'si saat 06 UTC'ye kadar geçerli Tahmin
Rüzgar güney/güneydoğudan 5 kt
Görüş mesafesi: 10 km
20000 ft yükseklikte parçalı bulutlu
Ayın 18'si saat 1700 UTC'den
Rüzgar güney/güneydoğudan 10 kt
Görüş mesafesi: 10 km
Açık gökyüzü
Ayın 19'si saat 0200 UTC'den
Rüzgar güney/güneydoğudan 5 kt
Görüş mesafesi: 10 km
Açık gökyüzü

TAF: MMML 180426Z 1806/1906 16005KT P6SM SCT200 FM181700 16010KT P6SM SKC FM190200 16005KT P6SM SKC

4.000'den fazla havaalanı için hava durumu gözlemleri ve tahminleri (METAR ve TAF raporları).

Kullanılabilir istasyonlar harita üzerinde sarı ve kırmızı noktalarla gösterilir.

İstasyonun adını görmek için fareyi noktanın üzerinde gezdirin.

Sonrasında hava gözlem ve tahminlerini görmek için tıklayın.

Haritayı değiştirmek için: yaklaştırmak için siyah artı işaretli yeşil düğmeye ve uzaklaştırmak için de eksi işaretli düğmeye hızla tıklayın; bitişik haritalar için yeşil okları kullanın.


METAR-TAF: